Report METAR

 

LJLJ - Ljubljana/Brnik, Slovenia
Distance from station: O 41km
Dati ricevuti: 24/05/2022 09:30
Parz. nuvoloso
Parz. nuvoloso
 Vento da ENE
Vento: ENE 6 km/h
Temperatura: 22°C
P.to Rugiada: 16°C
Umidità: 69%
Barometro: 1008 hPa
Nuvole: Parz. nuvoloso
Visibility: 10 km
Cloud details: Few Clouds 1524 m
Parz. nuvoloso 1829 m
2022/05/24 07:30 LJLJ 240730Z 06003KT 030V100 9999 FEW050 SCT060 22/16 Q1008 NOSIG
LJMB - Maribor, Slovenia
Distance from station: NE 63km
Dati ricevuti: 24/05/2022 09:30
Sereno
Sereno
 Vento da E
Vento: E 6 km/h
Temperatura: 21°C
P.to Rugiada: 16°C
Umidità: 73%
Barometro: 1008 hPa
Summary: Sereno
Visibility: superiore a 10 km
2022/05/24 07:30 LJMB 240730Z 10003KT 020V200 CAVOK 21/16 Q1008
 
LJPZ - Portoroz, Slovenia
Distance from station: SO 130km
Dati ricevuti: 24/05/2022 09:30
Sereno
Sereno
 Vento da SSE
Vento: SSE 15 km/h
Temperatura: 25°C
P.to Rugiada: 16°C
Umidità: 57%
Barometro: 1007 hPa
Summary: Sereno
Visibility: superiore a 10 km
2022/05/24 07:30 LJPZ 240730Z 15008KT 100V190 CAVOK 25/16 Q1007
LJCE - Cerklje, Slovenia
Distance from station: ESE 49km
Dati ricevuti: 24/05/2022 09:30
Few Clouds
Few Clouds
 Vento da Variabile
Vento: Variabile 2 km/h
Temperatura: 23°C
P.to Rugiada: 16°C
Umidità: 65%
Barometro: 1008 hPa
Nuvole: Few Clouds
Visibility: 10 km
Cloud details: Few Clouds 732 m
2022/05/24 07:30 LJCE 240730Z VRB01KT 9999 FEW024 23/16 Q1008 RMK BLU
 
LDZA - Zagreb/Pleso, Croatia
Distance from station: ESE 96km
Dati ricevuti: 24/05/2022 10:00
Few Clouds
Few Clouds
 Vento da ENE
Vento: ENE 6 km/h
Temperatura: 24°C
P.to Rugiada: 16°C
Umidità: 61%
Barometro: 1008 hPa
Nuvole: Few Clouds
Visibility: 10 km
Cloud details: Few Clouds 1463 m
2022/05/24 08:00 LDZA 240800Z 07003KT 360V170 9999 FEW048 24/16 Q1008 BECMG 24006KT
LDRI - Rijeka/Omisalj, Croatia
Distance from station: SSO 109km
Dati ricevuti: 24/05/2022 10:00
Few Clouds
Few Clouds
 Vento da Variabile
Vento: Variabile 6 km/h
Temperatura: 24°C
P.to Rugiada: 16°C
Umidità: 61%
Barometro: 1009 hPa
Nuvole: Few Clouds
Visibility: 10 km
Cloud details: Few Clouds 1219 m
2022/05/24 08:00 LDRI 240800Z VRB03KT 9999 FEW040 24/16 Q1009
 
LDPL - Pula, Croatia
Distance from station: SSO 164km
Dati ricevuti: 24/05/2022 10:00
Sereno
Sereno
 Vento da SSE
Vento: SSE 19 km/h
Temperatura: 23°C
P.to Rugiada: 17°C
Umidità: 69%
Barometro: 1008 hPa
Summary: Sereno
Visibility: superiore a 10 km
2022/05/24 08:00 LDPL 240800Z 15010KT 110V250 CAVOK 23/17 Q1008 NOSIG
LOWK - Klagenfurt(Civ/M, Austria
Distance from station: NO 76km
Dati ricevuti: 24/05/2022 09:50
Few Clouds
Few Clouds
 Vento da E
Vento: E 6 km/h
Temperatura: 19°C
P.to Rugiada: 14°C
Umidità: 73%
Barometro: 1009 hPa
Nuvole: Few Clouds
Visibility: 10 km
Cloud details: Few Clouds 610 m
2022/05/24 07:50 LOWK 240750Z AUTO 09003KT 030V190 9999 FEW020 19/14 Q1009 NOSIG
 
LOWG - Graz (mil/Civ), Austria
Distance from station: NNE 100km
Dati ricevuti: 24/05/2022 09:50
Few Clouds
Few Clouds
 Vento da Variabile
Vento: Variabile 4 km/h
Temperatura: 21°C
P.to Rugiada: 15°C
Umidità: 69%
Barometro: 1008 hPa
Nuvole: Few Clouds
Visibility: 10 km
Cloud details: Few Clouds 457 m
2022/05/24 07:50 LOWG 240750Z VRB02KT 9999 FEW015 21/15 Q1008 NOSIG
LOAN - Wr.neustadt East, Austria
Distance from station: NNE 212km
Dati ricevuti: 24/05/2022 09:00
Parz. nuvoloso
Parz. nuvoloso
 Vento da E
Vento: E 9 km/h
Nuvole: Parz. nuvoloso
Visibility: 10 km
Cloud details: Few Clouds 305 m
Parz. nuvoloso 1067 m
2022/05/24 07:00 LOAN 240700Z 09005KT 9999 FEW010 SCT035
 
LIPQ - Ronchi Legionari, Italy
Distance from station: SO 35km
Dati ricevuti: 24/05/2022 09:50
Sereno
Sereno
 Vento da SE
Vento: SE 7 km/h
Temperatura: 25°C
P.to Rugiada: 16°C
Umidità: 57%
Barometro: 1007 hPa
Nuvole: Sereno
Visibility: 10 km
2022/05/24 07:50 LIPQ 240750Z AUTO 13004KT 080V190 9999 NCD 25/16 Q1007
LIVT - Trieste, Italy
Distance from station: OSO 109km
Dati ricevuti: 24/05/2022 08:55
Sereno
Sereno
 Vento da S
Vento: S 4 km/h
Temperatura: 25°C
P.to Rugiada: 20°C
Umidità: 74%
Barometro: 1006 hPa
Summary: Sereno
Visibility: superiore a 10 km
2022/05/24 06:55 LIVT 240655Z 17002KT CAVOK 25/20 Q1006
 
LIVO - Tarvisio, Italy
Distance from station: NNO 49km
Dati ricevuti: 24/05/2022 08:55
Parz. nuvoloso
Parz. nuvoloso
 Vento da calmo
Vento: Calma
Temperatura: 17°C
P.to Rugiada: 13°C
Umidità: 77%
Barometro: 1008 hPa
Nuvole: Parz. nuvoloso
Visibility: 10 km
Cloud details: Parz. nuvoloso 762 m
2022/05/24 06:55 LIVO 240655Z 00000KT 9999 SCT025 17/13 Q1008
LIPZ - Venezia/Tessera, Italy
Distance from station: OSO 217km
Dati ricevuti: 24/05/2022 09:50
Few Clouds
Few Clouds
 Vento da E
Vento: E 19 km/h
Temperatura: 24°C
P.to Rugiada: 16°C
Umidità: 61%
Barometro: 1006 hPa
Nuvole: Few Clouds
Visibility: 10 km
Cloud details: Few Clouds 305 m
2022/05/24 07:50 LIPZ 240750Z 09010KT 9999 FEW010 24/16 Q1006 NOSIG
 
LHSM - Balaton, Hungary
Distance from station: ENE 177km
Dati ricevuti: 24/05/2022 09:45
Sereno
Sereno
 Vento da ENE
Vento: ENE 13 km/h
Temperatura: 19°C
P.to Rugiada: 15°C
Umidità: 78%
Barometro: 1009 hPa
Summary: Sereno
Visibility: superiore a 10 km
2022/05/24 07:45 LHSM 240745Z AUTO 06007KT 020V090 CAVOK 19/15 Q1009 NOSIG